Terminal Aerodrome Forecast
Issued by NWS

Current Version | Previous Version | Graphics & Text | Print | Product List | Glossary On
Versions: 1 2 3 4 5 6 7 8 9 10 11 12 13 14 15 16 17 18 19 20 21 22 23
675
FTUS41 KILN 230900 AAC
TAFLUK
TAF AMD
KLUK 230900Z 2309/2406 00000KT P6SM OVC050
     FM231600 22005KT 6SM BR BKN026
     FM231800 22006KT P6SM BKN040
     FM240000 17003KT P6SM BKN040
     FM240300 16003KT 3SM BR BKN022=

USA.gov is the U.S. government's official web portal to all federal, state and local government web resources and services.